Terminal Aerodrome Forecast
Issued by NWS

Current Version | Previous Version | Text Only | Print | Product List | Glossary On
Versions: 1 2 3 4 5 6 7 8 9 10 11 12 13 14 15 16 17 18 19 20 21 22 23 24 25
000
FTUS46 KLOX 052339
TAFOXR
TAF
KOXR 052339Z 0600/0624 23010KT P6SM SCT060
     FM060200 27007KT P6SM VCTS SCT030 OVC040CB
      TEMPO 0602/0606 P6SM -SHRA OVC035
     FM060600 VRB03KT P6SM VCSH SCT025 OVC040
     FM060900 27008KT P6SM VCSH SCT020 OVC030
     FM061800 25006KT P6SM VCSH SCT025 OVC035
     FM062100 25009KT P6SM VCSH SCT025 OVC040=

USA.gov is the U.S. government's official web portal to all federal, state and local government web resources and services.